sensor_id;sensor_type;location;lat;lon;timestamp;temperature;humidity
11666;DHT22;5889;51.350;6.708;2023-07-28T00:02:15;18.40;99.90
11666;DHT22;5889;51.350;6.708;2023-07-28T00:04:42;18.50;99.90
11666;DHT22;5889;51.350;6.708;2023-07-28T00:07:09;18.40;99.90
11666;DHT22;5889;51.350;6.708;2023-07-28T00:09:36;18.40;99.90
11666;DHT22;5889;51.350;6.708;2023-07-28T00:12:04;18.40;99.90
11666;DHT22;5889;51.350;6.708;2023-07-28T00:14:32;18.40;99.90
11666;DHT22;5889;51.350;6.708;2023-07-28T00:16:59;18.40;99.90
11666;DHT22;5889;51.350;6.708;2023-07-28T00:19:26;18.40;99.90
11666;DHT22;5889;51.350;6.708;2023-07-28T00:21:53;18.40;99.90
11666;DHT22;5889;51.350;6.708;2023-07-28T00:24:21;18.40;99.90
11666;DHT22;5889;51.350;6.708;2023-07-28T00:26:48;18.40;99.90
11666;DHT22;5889;51.350;6.708;2023-07-28T00:29:15;18.40;99.90
11666;DHT22;5889;51.350;6.708;2023-07-28T00:31:44;18.40;99.90
11666;DHT22;5889;51.350;6.708;2023-07-28T00:34:11;18.40;99.90
11666;DHT22;5889;51.350;6.708;2023-07-28T00:36:38;18.40;99.90
11666;DHT22;5889;51.350;6.708;2023-07-28T00:39:06;18.40;99.90
11666;DHT22;5889;51.350;6.708;2023-07-28T00:41:33;18.40;99.90
11666;DHT22;5889;51.350;6.708;2023-07-28T00:44:01;18.40;99.90
11666;DHT22;5889;51.350;6.708;2023-07-28T00:46:29;18.40;99.90
11666;DHT22;5889;51.350;6.708;2023-07-28T00:48:57;18.40;99.90
11666;DHT22;5889;51.350;6.708;2023-07-28T00:51:24;18.40;99.90
11666;DHT22;5889;51.350;6.708;2023-07-28T00:53:51;18.40;99.90
11666;DHT22;5889;51.350;6.708;2023-07-28T00:56:19;18.40;99.90
11666;DHT22;5889;51.350;6.708;2023-07-28T00:58:47;18.40;99.90
11666;DHT22;5889;51.350;6.708;2023-07-28T01:01:15;18.40;99.90
11666;DHT22;5889;51.350;6.708;2023-07-28T01:03:42;18.40;99.90
11666;DHT22;5889;51.350;6.708;2023-07-28T01:06:18;18.30;99.90
11666;DHT22;5889;51.350;6.708;2023-07-28T01:08:52;18.30;99.90
11666;DHT22;5889;51.350;6.708;2023-07-28T01:11:21;18.30;99.90
11666;DHT22;5889;51.350;6.708;2023-07-28T01:13:48;18.30;99.90
11666;DHT22;5889;51.350;6.708;2023-07-28T01:16:15;18.30;99.90
11666;DHT22;5889;51.350;6.708;2023-07-28T01:18:42;18.30;99.90
11666;DHT22;5889;51.350;6.708;2023-07-28T01:21:16;18.20;99.90
11666;DHT22;5889;51.350;6.708;2023-07-28T01:23:52;18.30;99.90
11666;DHT22;5889;51.350;6.708;2023-07-28T01:26:30;18.30;99.90
11666;DHT22;5889;51.350;6.708;2023-07-28T01:28:57;18.30;99.90
11666;DHT22;5889;51.350;6.708;2023-07-28T01:31:25;18.20;99.90
11666;DHT22;5889;51.350;6.708;2023-07-28T01:33:52;18.30;99.90
11666;DHT22;5889;51.350;6.708;2023-07-28T01:36:29;18.30;99.90
11666;DHT22;5889;51.350;6.708;2023-07-28T01:38:56;18.30;99.90
11666;DHT22;5889;51.350;6.708;2023-07-28T01:41:23;18.20;99.90
11666;DHT22;5889;51.350;6.708;2023-07-28T01:43:52;18.30;99.90
11666;DHT22;5889;51.350;6.708;2023-07-28T01:46:21;18.20;99.90
11666;DHT22;5889;51.350;6.708;2023-07-28T01:48:48;18.20;99.90
11666;DHT22;5889;51.350;6.708;2023-07-28T01:51:15;18.30;99.90
11666;DHT22;5889;51.350;6.708;2023-07-28T01:53:42;18.30;99.90
11666;DHT22;5889;51.350;6.708;2023-07-28T01:56:09;18.30;99.90
11666;DHT22;5889;51.350;6.708;2023-07-28T01:58:36;18.30;99.90
11666;DHT22;5889;51.350;6.708;2023-07-28T02:01:04;18.30;99.90
11666;DHT22;5889;51.350;6.708;2023-07-28T02:03:31;18.30;99.90
11666;DHT22;5889;51.350;6.708;2023-07-28T02:05:58;18.30;99.90
11666;DHT22;5889;51.350;6.708;2023-07-28T02:08:25;18.30;99.90
11666;DHT22;5889;51.350;6.708;2023-07-28T02:10:53;18.30;99.90
11666;DHT22;5889;51.350;6.708;2023-07-28T02:13:20;18.30;99.90
11666;DHT22;5889;51.350;6.708;2023-07-28T02:15:47;18.30;99.90
11666;DHT22;5889;51.350;6.708;2023-07-28T02:18:17;18.30;99.90
11666;DHT22;5889;51.350;6.708;2023-07-28T02:20:47;18.30;99.90
11666;DHT22;5889;51.350;6.708;2023-07-28T02:23:14;18.40;99.90
11666;DHT22;5889;51.350;6.708;2023-07-28T02:25:41;18.40;99.90
11666;DHT22;5889;51.350;6.708;2023-07-28T02:28:09;18.40;99.90
11666;DHT22;5889;51.350;6.708;2023-07-28T02:30:38;18.40;99.90
11666;DHT22;5889;51.350;6.708;2023-07-28T02:33:05;18.40;99.90
11666;DHT22;5889;51.350;6.708;2023-07-28T02:35:34;18.40;99.90
11666;DHT22;5889;51.350;6.708;2023-07-28T02:38:02;18.40;99.90
11666;DHT22;5889;51.350;6.708;2023-07-28T02:40:28;18.40;99.90
11666;DHT22;5889;51.350;6.708;2023-07-28T02:42:55;18.30;99.90
11666;DHT22;5889;51.350;6.708;2023-07-28T02:45:24;18.30;99.90
11666;DHT22;5889;51.350;6.708;2023-07-28T02:47:51;18.40;99.90
11666;DHT22;5889;51.350;6.708;2023-07-28T02:50:18;18.40;99.90
11666;DHT22;5889;51.350;6.708;2023-07-28T02:52:46;18.40;99.90
11666;DHT22;5889;51.350;6.708;2023-07-28T02:55:13;18.40;99.90
11666;DHT22;5889;51.350;6.708;2023-07-28T02:57:40;18.40;99.90
11666;DHT22;5889;51.350;6.708;2023-07-28T03:00:08;18.40;99.90
11666;DHT22;5889;51.350;6.708;2023-07-28T03:02:36;18.40;99.90
11666;DHT22;5889;51.350;6.708;2023-07-28T03:05:03;18.40;99.90
11666;DHT22;5889;51.350;6.708;2023-07-28T03:07:30;18.40;99.90
11666;DHT22;5889;51.350;6.708;2023-07-28T03:09:59;18.40;99.90
11666;DHT22;5889;51.350;6.708;2023-07-28T03:12:26;18.40;99.90
11666;DHT22;5889;51.350;6.708;2023-07-28T03:14:53;18.40;99.90
11666;DHT22;5889;51.350;6.708;2023-07-28T03:17:20;18.40;99.90
11666;DHT22;5889;51.350;6.708;2023-07-28T03:19:47;18.50;99.90
11666;DHT22;5889;51.350;6.708;2023-07-28T03:22:14;18.50;99.90
11666;DHT22;5889;51.350;6.708;2023-07-28T03:24:40;18.50;99.90
11666;DHT22;5889;51.350;6.708;2023-07-28T03:27:09;18.50;99.90
11666;DHT22;5889;51.350;6.708;2023-07-28T03:29:36;18.50;99.90
11666;DHT22;5889;51.350;6.708;2023-07-28T03:32:04;18.50;99.90
11666;DHT22;5889;51.350;6.708;2023-07-28T03:34:31;18.50;99.90
11666;DHT22;5889;51.350;6.708;2023-07-28T03:36:58;18.50;99.90
11666;DHT22;5889;51.350;6.708;2023-07-28T03:39:25;18.50;99.90
11666;DHT22;5889;51.350;6.708;2023-07-28T03:41:52;18.50;99.90
11666;DHT22;5889;51.350;6.708;2023-07-28T03:44:21;18.50;99.90
11666;DHT22;5889;51.350;6.708;2023-07-28T03:46:48;18.50;99.90
11666;DHT22;5889;51.350;6.708;2023-07-28T03:49:15;18.50;99.90
11666;DHT22;5889;51.350;6.708;2023-07-28T03:51:42;18.50;99.90
11666;DHT22;5889;51.350;6.708;2023-07-28T03:54:09;18.50;99.90
11666;DHT22;5889;51.350;6.708;2023-07-28T03:56:36;18.50;99.90
11666;DHT22;5889;51.350;6.708;2023-07-28T03:59:03;18.50;99.90
11666;DHT22;5889;51.350;6.708;2023-07-28T04:01:32;18.60;99.90
11666;DHT22;5889;51.350;6.708;2023-07-28T04:03:59;18.60;99.90
11666;DHT22;5889;51.350;6.708;2023-07-28T04:06:41;18.60;99.90
11666;DHT22;5889;51.350;6.708;2023-07-28T04:09:08;18.60;99.90
11666;DHT22;5889;51.350;6.708;2023-07-28T04:11:35;18.60;99.90
11666;DHT22;5889;51.350;6.708;2023-07-28T04:14:02;18.60;99.90
11666;DHT22;5889;51.350;6.708;2023-07-28T04:16:29;18.70;99.90
11666;DHT22;5889;51.350;6.708;2023-07-28T04:18:58;18.70;99.90
11666;DHT22;5889;51.350;6.708;2023-07-28T04:21:26;18.70;99.90
11666;DHT22;5889;51.350;6.708;2023-07-28T04:23:53;18.70;99.90
11666;DHT22;5889;51.350;6.708;2023-07-28T04:26:20;18.70;99.90
11666;DHT22;5889;51.350;6.708;2023-07-28T04:28:47;18.70;99.90
11666;DHT22;5889;51.350;6.708;2023-07-28T04:31:14;18.70;99.90
11666;DHT22;5889;51.350;6.708;2023-07-28T04:33:41;18.70;99.90
11666;DHT22;5889;51.350;6.708;2023-07-28T04:36:10;18.70;99.90
11666;DHT22;5889;51.350;6.708;2023-07-28T04:38:37;18.80;99.90
11666;DHT22;5889;51.350;6.708;2023-07-28T04:41:04;18.80;99.90
11666;DHT22;5889;51.350;6.708;2023-07-28T04:43:30;18.80;99.90
11666;DHT22;5889;51.350;6.708;2023-07-28T04:45:57;18.90;99.90
11666;DHT22;5889;51.350;6.708;2023-07-28T04:48:24;18.90;99.90
11666;DHT22;5889;51.350;6.708;2023-07-28T04:50:51;18.90;99.90
11666;DHT22;5889;51.350;6.708;2023-07-28T04:53:20;18.90;99.90
11666;DHT22;5889;51.350;6.708;2023-07-28T04:55:46;18.90;99.90
11666;DHT22;5889;51.350;6.708;2023-07-28T04:58:13;19.00;99.90
11666;DHT22;5889;51.350;6.708;2023-07-28T05:00:40;19.00;99.90
11666;DHT22;5889;51.350;6.708;2023-07-28T05:03:07;19.00;99.90
11666;DHT22;5889;51.350;6.708;2023-07-28T05:05:34;19.00;99.90
11666;DHT22;5889;51.350;6.708;2023-07-28T05:08:01;19.00;99.90
11666;DHT22;5889;51.350;6.708;2023-07-28T05:10:30;19.00;99.90
11666;DHT22;5889;51.350;6.708;2023-07-28T05:12:57;19.00;99.90
11666;DHT22;5889;51.350;6.708;2023-07-28T05:15:23;19.10;99.90
11666;DHT22;5889;51.350;6.708;2023-07-28T05:17:50;19.10;99.90
11666;DHT22;5889;51.350;6.708;2023-07-28T05:20:17;19.10;99.90
11666;DHT22;5889;51.350;6.708;2023-07-28T05:22:44;19.10;99.90
11666;DHT22;5889;51.350;6.708;2023-07-28T05:25:11;19.10;99.90
11666;DHT22;5889;51.350;6.708;2023-07-28T05:27:40;19.10;99.90
11666;DHT22;5889;51.350;6.708;2023-07-28T05:30:08;19.10;99.90
11666;DHT22;5889;51.350;6.708;2023-07-28T05:32:35;19.10;99.90
11666;DHT22;5889;51.350;6.708;2023-07-28T05:35:02;19.10;99.90
11666;DHT22;5889;51.350;6.708;2023-07-28T05:37:29;19.20;99.90
11666;DHT22;5889;51.350;6.708;2023-07-28T05:39:56;19.20;99.90
11666;DHT22;5889;51.350;6.708;2023-07-28T05:42:23;19.20;99.90
11666;DHT22;5889;51.350;6.708;2023-07-28T05:44:53;19.20;99.90
11666;DHT22;5889;51.350;6.708;2023-07-28T05:47:20;19.20;99.90
11666;DHT22;5889;51.350;6.708;2023-07-28T05:49:47;19.30;99.90
11666;DHT22;5889;51.350;6.708;2023-07-28T05:52:14;19.30;99.90
11666;DHT22;5889;51.350;6.708;2023-07-28T05:54:41;19.40;99.90
11666;DHT22;5889;51.350;6.708;2023-07-28T05:57:08;19.40;99.90
11666;DHT22;5889;51.350;6.708;2023-07-28T05:59:35;19.50;99.90
11666;DHT22;5889;51.350;6.708;2023-07-28T06:02:04;19.50;99.90
11666;DHT22;5889;51.350;6.708;2023-07-28T06:04:31;19.60;99.90
11666;DHT22;5889;51.350;6.708;2023-07-28T06:06:58;19.60;99.90
11666;DHT22;5889;51.350;6.708;2023-07-28T06:09:25;19.60;99.90
11666;DHT22;5889;51.350;6.708;2023-07-28T06:11:52;19.60;99.90
11666;DHT22;5889;51.350;6.708;2023-07-28T06:14:19;19.60;99.90
11666;DHT22;5889;51.350;6.708;2023-07-28T06:16:46;19.60;99.90
11666;DHT22;5889;51.350;6.708;2023-07-28T06:19:14;19.60;99.90
11666;DHT22;5889;51.350;6.708;2023-07-28T06:21:42;19.70;99.90
11666;DHT22;5889;51.350;6.708;2023-07-28T06:24:09;19.60;99.90
11666;DHT22;5889;51.350;6.708;2023-07-28T06:26:36;19.70;99.90
11666;DHT22;5889;51.350;6.708;2023-07-28T06:29:03;19.70;99.90
11666;DHT22;5889;51.350;6.708;2023-07-28T06:31:31;19.80;99.90
11666;DHT22;5889;51.350;6.708;2023-07-28T06:33:58;19.80;99.90
11666;DHT22;5889;51.350;6.708;2023-07-28T06:36:26;19.80;99.90
11666;DHT22;5889;51.350;6.708;2023-07-28T06:38:53;19.80;99.90
11666;DHT22;5889;51.350;6.708;2023-07-28T06:41:21;19.80;99.90
11666;DHT22;5889;51.350;6.708;2023-07-28T06:43:48;19.80;99.90
11666;DHT22;5889;51.350;6.708;2023-07-28T06:46:15;19.80;99.90
11666;DHT22;5889;51.350;6.708;2023-07-28T06:48:42;19.70;99.90
11666;DHT22;5889;51.350;6.708;2023-07-28T06:51:09;19.70;99.90
11666;DHT22;5889;51.350;6.708;2023-07-28T06:53:37;19.70;99.90
11666;DHT22;5889;51.350;6.708;2023-07-28T06:56:04;19.80;99.90
11666;DHT22;5889;51.350;6.708;2023-07-28T06:58:31;19.80;99.90
11666;DHT22;5889;51.350;6.708;2023-07-28T07:00:58;19.80;99.90
11666;DHT22;5889;51.350;6.708;2023-07-28T07:03:25;19.80;99.90
11666;DHT22;5889;51.350;6.708;2023-07-28T07:05:52;19.80;99.90
11666;DHT22;5889;51.350;6.708;2023-07-28T07:08:19;19.80;99.90
11666;DHT22;5889;51.350;6.708;2023-07-28T07:10:51;19.80;99.90
11666;DHT22;5889;51.350;6.708;2023-07-28T07:13:18;19.90;99.90
11666;DHT22;5889;51.350;6.708;2023-07-28T07:15:45;19.90;99.90
11666;DHT22;5889;51.350;6.708;2023-07-28T07:18:12;19.90;99.90
11666;DHT22;5889;51.350;6.708;2023-07-28T07:20:39;19.90;99.90
11666;DHT22;5889;51.350;6.708;2023-07-28T07:23:07;20.00;99.90
11666;DHT22;5889;51.350;6.708;2023-07-28T07:25:34;20.10;99.90
11666;DHT22;5889;51.350;6.708;2023-07-28T07:28:02;20.10;99.90
11666;DHT22;5889;51.350;6.708;2023-07-28T07:30:32;20.20;99.90
11666;DHT22;5889;51.350;6.708;2023-07-28T07:32:59;20.20;99.90
11666;DHT22;5889;51.350;6.708;2023-07-28T07:35:26;20.30;99.90
11666;DHT22;5889;51.350;6.708;2023-07-28T07:37:53;20.30;99.90
11666;DHT22;5889;51.350;6.708;2023-07-28T07:40:20;20.40;99.90
11666;DHT22;5889;51.350;6.708;2023-07-28T07:42:48;20.40;99.90
11666;DHT22;5889;51.350;6.708;2023-07-28T07:45:17;20.50;99.90
11666;DHT22;5889;51.350;6.708;2023-07-28T07:47:44;20.60;99.90
11666;DHT22;5889;51.350;6.708;2023-07-28T07:50:11;20.60;99.90
11666;DHT22;5889;51.350;6.708;2023-07-28T07:52:39;20.70;99.90
11666;DHT22;5889;51.350;6.708;2023-07-28T07:55:06;20.60;99.90
11666;DHT22;5889;51.350;6.708;2023-07-28T07:57:33;20.60;99.90
11666;DHT22;5889;51.350;6.708;2023-07-28T08:00:00;20.70;99.90
11666;DHT22;5889;51.350;6.708;2023-07-28T08:02:29;20.70;99.90
11666;DHT22;5889;51.350;6.708;2023-07-28T08:04:56;20.80;99.90
11666;DHT22;5889;51.350;6.708;2023-07-28T08:07:23;20.80;99.90
11666;DHT22;5889;51.350;6.708;2023-07-28T08:09:50;20.90;99.90
11666;DHT22;5889;51.350;6.708;2023-07-28T08:12:17;20.90;99.90
11666;DHT22;5889;51.350;6.708;2023-07-28T08:14:44;20.90;99.90
11666;DHT22;5889;51.350;6.708;2023-07-28T08:17:12;20.90;99.90
11666;DHT22;5889;51.350;6.708;2023-07-28T08:19:40;20.80;99.90
11666;DHT22;5889;51.350;6.708;2023-07-28T08:22:07;20.80;99.90
11666;DHT22;5889;51.350;6.708;2023-07-28T08:24:34;20.80;99.90
11666;DHT22;5889;51.350;6.708;2023-07-28T08:27:02;20.90;99.90
11666;DHT22;5889;51.350;6.708;2023-07-28T08:29:29;20.90;99.90
11666;DHT22;5889;51.350;6.708;2023-07-28T08:31:56;21.00;99.90
11666;DHT22;5889;51.350;6.708;2023-07-28T08:34:23;21.00;99.90
11666;DHT22;5889;51.350;6.708;2023-07-28T08:36:52;21.00;99.90
11666;DHT22;5889;51.350;6.708;2023-07-28T08:39:18;21.00;99.90
11666;DHT22;5889;51.350;6.708;2023-07-28T08:41:45;21.00;99.90
11666;DHT22;5889;51.350;6.708;2023-07-28T08:44:12;21.00;99.90
11666;DHT22;5889;51.350;6.708;2023-07-28T08:46:41;20.90;99.90
11666;DHT22;5889;51.350;6.708;2023-07-28T08:49:08;20.90;99.90
11666;DHT22;5889;51.350;6.708;2023-07-28T08:51:35;20.90;99.90
11666;DHT22;5889;51.350;6.708;2023-07-28T08:54:08;20.80;99.90
11666;DHT22;5889;51.350;6.708;2023-07-28T08:56:35;20.90;99.90
11666;DHT22;5889;51.350;6.708;2023-07-28T08:59:02;20.80;99.90
11666;DHT22;5889;51.350;6.708;2023-07-28T09:01:30;20.90;99.90
11666;DHT22;5889;51.350;6.708;2023-07-28T09:03:57;21.00;99.90
11666;DHT22;5889;51.350;6.708;2023-07-28T09:06:28;21.10;99.90
11666;DHT22;5889;51.350;6.708;2023-07-28T09:08:56;21.10;99.90
11666;DHT22;5889;51.350;6.708;2023-07-28T09:11:25;21.10;99.90
11666;DHT22;5889;51.350;6.708;2023-07-28T09:13:54;21.00;99.90
11666;DHT22;5889;51.350;6.708;2023-07-28T09:16:22;21.10;99.90
11666;DHT22;5889;51.350;6.708;2023-07-28T09:18:50;21.20;99.90
11666;DHT22;5889;51.350;6.708;2023-07-28T09:21:17;21.40;99.90
11666;DHT22;5889;51.350;6.708;2023-07-28T09:23:46;21.60;99.90
11666;DHT22;5889;51.350;6.708;2023-07-28T09:26:14;21.80;99.90
11666;DHT22;5889;51.350;6.708;2023-07-28T09:28:43;21.90;99.90
11666;DHT22;5889;51.350;6.708;2023-07-28T09:31:10;22.00;99.90
11666;DHT22;5889;51.350;6.708;2023-07-28T09:33:37;22.00;99.90
11666;DHT22;5889;51.350;6.708;2023-07-28T09:36:10;22.00;99.90
11666;DHT22;5889;51.350;6.708;2023-07-28T09:38:41;21.90;99.90
11666;DHT22;5889;51.350;6.708;2023-07-28T09:41:09;21.90;99.90
11666;DHT22;5889;51.350;6.708;2023-07-28T09:43:37;21.90;99.90
11666;DHT22;5889;51.350;6.708;2023-07-28T09:46:08;22.00;99.90
11666;DHT22;5889;51.350;6.708;2023-07-28T09:48:38;22.10;99.90
11666;DHT22;5889;51.350;6.708;2023-07-28T09:51:10;22.10;99.90
11666;DHT22;5889;51.350;6.708;2023-07-28T09:53:44;22.20;99.90
11666;DHT22;5889;51.350;6.708;2023-07-28T09:56:14;22.40;99.90
11666;DHT22;5889;51.350;6.708;2023-07-28T09:58:47;22.50;99.90
11666;DHT22;5889;51.350;6.708;2023-07-28T10:01:17;22.60;99.90
11666;DHT22;5889;51.350;6.708;2023-07-28T10:03:44;22.80;99.90
11666;DHT22;5889;51.350;6.708;2023-07-28T10:06:12;22.90;99.90
11666;DHT22;5889;51.350;6.708;2023-07-28T10:08:40;22.90;99.90
11666;DHT22;5889;51.350;6.708;2023-07-28T10:11:07;23.00;99.90
11666;DHT22;5889;51.350;6.708;2023-07-28T10:13:40;23.10;99.90
11666;DHT22;5889;51.350;6.708;2023-07-28T10:16:08;23.10;99.90
11666;DHT22;5889;51.350;6.708;2023-07-28T10:18:37;23.10;99.90
11666;DHT22;5889;51.350;6.708;2023-07-28T10:21:05;23.20;99.90
11666;DHT22;5889;51.350;6.708;2023-07-28T10:23:34;23.50;99.90
11666;DHT22;5889;51.350;6.708;2023-07-28T10:26:03;23.80;99.90
11666;DHT22;5889;51.350;6.708;2023-07-28T10:28:32;24.10;99.90
11666;DHT22;5889;51.350;6.708;2023-07-28T10:31:05;24.20;99.90
11666;DHT22;5889;51.350;6.708;2023-07-28T10:33:34;24.30;99.90
11666;DHT22;5889;51.350;6.708;2023-07-28T10:36:13;24.60;99.90
11666;DHT22;5889;51.350;6.708;2023-07-28T10:38:40;24.90;99.90
11666;DHT22;5889;51.350;6.708;2023-07-28T10:41:14;25.00;99.90
11666;DHT22;5889;51.350;6.708;2023-07-28T10:43:42;25.20;99.90
11666;DHT22;5889;51.350;6.708;2023-07-28T10:46:11;25.40;99.90
11666;DHT22;5889;51.350;6.708;2023-07-28T10:48:42;25.30;99.90
11666;DHT22;5889;51.350;6.708;2023-07-28T10:51:09;25.40;99.90
11666;DHT22;5889;51.350;6.708;2023-07-28T10:53:38;25.40;99.90
11666;DHT22;5889;51.350;6.708;2023-07-28T10:56:05;25.30;99.90
11666;DHT22;5889;51.350;6.708;2023-07-28T10:58:35;25.30;99.90
11666;DHT22;5889;51.350;6.708;2023-07-28T11:01:03;25.30;99.90
11666;DHT22;5889;51.350;6.708;2023-07-28T11:03:30;25.40;99.90
11666;DHT22;5889;51.350;6.708;2023-07-28T11:05:57;25.50;99.90
11666;DHT22;5889;51.350;6.708;2023-07-28T11:08:24;25.60;99.90
11666;DHT22;5889;51.350;6.708;2023-07-28T11:10:53;25.60;99.90
11666;DHT22;5889;51.350;6.708;2023-07-28T11:13:22;25.50;99.90
11666;DHT22;5889;51.350;6.708;2023-07-28T11:15:51;25.30;99.90
11666;DHT22;5889;51.350;6.708;2023-07-28T11:18:18;25.10;99.90
11666;DHT22;5889;51.350;6.708;2023-07-28T11:20:45;24.90;99.90
11666;DHT22;5889;51.350;6.708;2023-07-28T11:23:14;24.60;99.90
11666;DHT22;5889;51.350;6.708;2023-07-28T11:25:44;23.90;99.90
11666;DHT22;5889;51.350;6.708;2023-07-28T11:28:14;23.30;99.90
11666;DHT22;5889;51.350;6.708;2023-07-28T11:30:41;23.20;99.90
11666;DHT22;5889;51.350;6.708;2023-07-28T11:33:09;23.20;99.90
11666;DHT22;5889;51.350;6.708;2023-07-28T11:35:38;23.50;99.90
11666;DHT22;5889;51.350;6.708;2023-07-28T11:38:06;23.80;99.90
11666;DHT22;5889;51.350;6.708;2023-07-28T11:40:33;23.80;99.90
11666;DHT22;5889;51.350;6.708;2023-07-28T11:43:01;23.80;99.90
11666;DHT22;5889;51.350;6.708;2023-07-28T11:45:30;23.90;99.90
11666;DHT22;5889;51.350;6.708;2023-07-28T11:47:59;24.10;99.90
11666;DHT22;5889;51.350;6.708;2023-07-28T11:50:27;24.10;99.90
11666;DHT22;5889;51.350;6.708;2023-07-28T11:52:55;24.20;99.90
11666;DHT22;5889;51.350;6.708;2023-07-28T11:55:23;24.20;99.90
11666;DHT22;5889;51.350;6.708;2023-07-28T11:57:52;24.50;99.90
11666;DHT22;5889;51.350;6.708;2023-07-28T12:00:19;24.60;99.90
11666;DHT22;5889;51.350;6.708;2023-07-28T12:03:03;24.80;99.90
11666;DHT22;5889;51.350;6.708;2023-07-28T12:05:33;24.90;99.90
11666;DHT22;5889;51.350;6.708;2023-07-28T12:08:01;25.00;99.90
11666;DHT22;5889;51.350;6.708;2023-07-28T12:10:28;25.20;99.90
11666;DHT22;5889;51.350;6.708;2023-07-28T12:12:57;25.30;99.90
11666;DHT22;5889;51.350;6.708;2023-07-28T12:15:30;25.30;99.90
11666;DHT22;5889;51.350;6.708;2023-07-28T12:18:10;25.20;99.90
11666;DHT22;5889;51.350;6.708;2023-07-28T12:20:39;25.30;99.90
11666;DHT22;5889;51.350;6.708;2023-07-28T12:23:08;25.40;99.90
11666;DHT22;5889;51.350;6.708;2023-07-28T12:25:35;25.60;99.90
11666;DHT22;5889;51.350;6.708;2023-07-28T12:28:03;25.80;99.90
11666;DHT22;5889;51.350;6.708;2023-07-28T12:30:30;25.80;99.90
11666;DHT22;5889;51.350;6.708;2023-07-28T12:32:57;25.70;99.90
11666;DHT22;5889;51.350;6.708;2023-07-28T12:35:26;25.70;99.90
11666;DHT22;5889;51.350;6.708;2023-07-28T12:37:56;26.00;99.90
11666;DHT22;5889;51.350;6.708;2023-07-28T12:40:25;26.20;99.90
11666;DHT22;5889;51.350;6.708;2023-07-28T12:42:56;26.40;99.90
11666;DHT22;5889;51.350;6.708;2023-07-28T12:45:23;26.40;99.90
11666;DHT22;5889;51.350;6.708;2023-07-28T12:47:51;26.50;99.90
11666;DHT22;5889;51.350;6.708;2023-07-28T12:50:19;26.60;99.90
11666;DHT22;5889;51.350;6.708;2023-07-28T12:52:48;26.60;99.90
11666;DHT22;5889;51.350;6.708;2023-07-28T12:55:15;26.70;99.90
11666;DHT22;5889;51.350;6.708;2023-07-28T12:57:42;26.90;99.90
11666;DHT22;5889;51.350;6.708;2023-07-28T13:00:10;26.80;99.90
11666;DHT22;5889;51.350;6.708;2023-07-28T13:02:39;26.70;99.90
11666;DHT22;5889;51.350;6.708;2023-07-28T13:05:08;26.50;99.90
11666;DHT22;5889;51.350;6.708;2023-07-28T13:07:36;26.40;99.90
11666;DHT22;5889;51.350;6.708;2023-07-28T13:10:07;26.20;99.90
11666;DHT22;5889;51.350;6.708;2023-07-28T13:12:35;25.90;99.90
11666;DHT22;5889;51.350;6.708;2023-07-28T13:15:02;25.80;99.90
11666;DHT22;5889;51.350;6.708;2023-07-28T13:17:29;25.80;99.90
11666;DHT22;5889;51.350;6.708;2023-07-28T13:19:56;25.70;99.90
11666;DHT22;5889;51.350;6.708;2023-07-28T13:22:25;25.60;99.90
11666;DHT22;5889;51.350;6.708;2023-07-28T13:24:53;25.50;99.90
11666;DHT22;5889;51.350;6.708;2023-07-28T13:27:21;25.50;99.90
11666;DHT22;5889;51.350;6.708;2023-07-28T13:29:48;25.50;99.90
11666;DHT22;5889;51.350;6.708;2023-07-28T13:32:17;25.50;99.90
11666;DHT22;5889;51.350;6.708;2023-07-28T13:34:44;25.40;99.90
11666;DHT22;5889;51.350;6.708;2023-07-28T13:37:11;25.50;99.90
11666;DHT22;5889;51.350;6.708;2023-07-28T13:39:38;25.50;99.90
11666;DHT22;5889;51.350;6.708;2023-07-28T13:42:05;25.50;99.90
11666;DHT22;5889;51.350;6.708;2023-07-28T13:44:33;25.40;99.90
11666;DHT22;5889;51.350;6.708;2023-07-28T13:47:00;25.30;99.90
11666;DHT22;5889;51.350;6.708;2023-07-28T13:49:27;25.30;99.90
11666;DHT22;5889;51.350;6.708;2023-07-28T13:51:55;25.40;99.90
11666;DHT22;5889;51.350;6.708;2023-07-28T13:54:22;25.30;99.90
11666;DHT22;5889;51.350;6.708;2023-07-28T13:56:48;25.20;99.90
11666;DHT22;5889;51.350;6.708;2023-07-28T13:59:15;25.10;99.90
11666;DHT22;5889;51.350;6.708;2023-07-28T14:01:44;25.00;99.90
11666;DHT22;5889;51.350;6.708;2023-07-28T14:04:11;25.00;99.90
11666;DHT22;5889;51.350;6.708;2023-07-28T14:06:39;25.00;99.90
11666;DHT22;5889;51.350;6.708;2023-07-28T14:09:06;24.80;99.90
11666;DHT22;5889;51.350;6.708;2023-07-28T14:11:33;24.80;99.90
11666;DHT22;5889;51.350;6.708;2023-07-28T14:14:01;24.70;99.90
11666;DHT22;5889;51.350;6.708;2023-07-28T14:16:28;24.60;99.90
11666;DHT22;5889;51.350;6.708;2023-07-28T14:18:56;24.60;99.90
11666;DHT22;5889;51.350;6.708;2023-07-28T14:21:23;24.40;99.90
11666;DHT22;5889;51.350;6.708;2023-07-28T14:23:50;24.30;99.90
11666;DHT22;5889;51.350;6.708;2023-07-28T14:26:17;24.20;99.90
11666;DHT22;5889;51.350;6.708;2023-07-28T14:28:44;24.30;99.90
11666;DHT22;5889;51.350;6.708;2023-07-28T14:31:11;24.40;99.90
11666;DHT22;5889;51.350;6.708;2023-07-28T14:33:38;24.80;99.90
11666;DHT22;5889;51.350;6.708;2023-07-28T14:36:07;25.00;99.90
11666;DHT22;5889;51.350;6.708;2023-07-28T14:38:34;25.10;99.90
11666;DHT22;5889;51.350;6.708;2023-07-28T14:41:01;25.20;99.90
11666;DHT22;5889;51.350;6.708;2023-07-28T14:43:28;25.20;99.90
11666;DHT22;5889;51.350;6.708;2023-07-28T14:45:55;25.10;99.90
11666;DHT22;5889;51.350;6.708;2023-07-28T14:48:22;25.10;99.90
11666;DHT22;5889;51.350;6.708;2023-07-28T14:50:49;25.10;99.90
11666;DHT22;5889;51.350;6.708;2023-07-28T14:53:31;25.10;99.90
11666;DHT22;5889;51.350;6.708;2023-07-28T14:55:59;25.20;99.90
11666;DHT22;5889;51.350;6.708;2023-07-28T14:58:27;25.20;99.90
11666;DHT22;5889;51.350;6.708;2023-07-28T15:00:54;25.20;99.90
11666;DHT22;5889;51.350;6.708;2023-07-28T15:03:22;25.20;99.90
11666;DHT22;5889;51.350;6.708;2023-07-28T15:05:49;25.10;99.90
11666;DHT22;5889;51.350;6.708;2023-07-28T15:08:16;25.00;99.90
11666;DHT22;5889;51.350;6.708;2023-07-28T15:10:44;25.00;99.90
11666;DHT22;5889;51.350;6.708;2023-07-28T15:13:11;24.90;99.90
11666;DHT22;5889;51.350;6.708;2023-07-28T15:15:38;24.80;99.90
11666;DHT22;5889;51.350;6.708;2023-07-28T15:18:05;24.80;99.90
11666;DHT22;5889;51.350;6.708;2023-07-28T15:20:33;24.80;99.90
11666;DHT22;5889;51.350;6.708;2023-07-28T15:23:00;24.80;99.90
11666;DHT22;5889;51.350;6.708;2023-07-28T15:25:27;24.80;99.90
11666;DHT22;5889;51.350;6.708;2023-07-28T15:27:55;24.80;99.90
11666;DHT22;5889;51.350;6.708;2023-07-28T15:30:22;24.90;99.90
11666;DHT22;5889;51.350;6.708;2023-07-28T15:32:49;25.00;99.90
11666;DHT22;5889;51.350;6.708;2023-07-28T15:35:16;25.00;99.90
11666;DHT22;5889;51.350;6.708;2023-07-28T15:37:44;25.00;99.90
11666;DHT22;5889;51.350;6.708;2023-07-28T15:40:11;25.00;99.90
11666;DHT22;5889;51.350;6.708;2023-07-28T15:42:38;24.80;99.90
11666;DHT22;5889;51.350;6.708;2023-07-28T15:45:07;24.70;99.90
11666;DHT22;5889;51.350;6.708;2023-07-28T15:47:34;24.60;99.90
11666;DHT22;5889;51.350;6.708;2023-07-28T15:50:01;24.50;99.90